sensor_id;sensor_type;location;lat;lon;timestamp;P1;durP1;ratioP1;P2;durP2;ratioP2
63193;SDS011;49289;51.670;5.624;2022-09-13T00:00:08;8.70;;;7.80;;
63193;SDS011;49289;51.670;5.624;2022-09-13T00:01:57;9.60;;;7.50;;
63193;SDS011;49289;51.670;5.624;2022-09-13T00:03:45;11.30;;;8.40;;
63193;SDS011;49289;51.670;5.624;2022-09-13T00:05:18;10.10;;;8.00;;
63193;SDS011;49289;51.670;5.624;2022-09-13T00:07:06;11.00;;;9.10;;
63193;SDS011;49289;51.670;5.624;2022-09-13T00:08:54;12.80;;;8.30;;
63193;SDS011;49289;51.670;5.624;2022-09-13T00:10:42;9.70;;;8.20;;
63193;SDS011;49289;51.670;5.624;2022-09-13T00:12:29;9.30;;;8.10;;
63193;SDS011;49289;51.670;5.624;2022-09-13T00:14:01;10.00;;;8.30;;
63193;SDS011;49289;51.670;5.624;2022-09-13T00:15:48;10.10;;;8.20;;
63193;SDS011;49289;51.670;5.624;2022-09-13T00:17:35;10.90;;;8.10;;
63193;SDS011;49289;51.670;5.624;2022-09-13T00:19:22;10.30;;;8.70;;
63193;SDS011;49289;51.670;5.624;2022-09-13T00:21:11;10.50;;;8.40;;
63193;SDS011;49289;51.670;5.624;2022-09-13T00:22:57;10.20;;;9.10;;
63193;SDS011;49289;51.670;5.624;2022-09-13T00:24:44;11.20;;;9.10;;
63193;SDS011;49289;51.670;5.624;2022-09-13T00:26:31;10.50;;;8.60;;
63193;SDS011;49289;51.670;5.624;2022-09-13T00:28:18;10.80;;;8.70;;
63193;SDS011;49289;51.670;5.624;2022-09-13T00:30:06;14.90;;;9.20;;
63193;SDS011;49289;51.670;5.624;2022-09-13T00:31:53;11.20;;;8.60;;
63193;SDS011;49289;51.670;5.624;2022-09-13T00:33:40;9.60;;;8.60;;
63193;SDS011;49289;51.670;5.624;2022-09-13T00:35:27;14.90;;;9.30;;
63193;SDS011;49289;51.670;5.624;2022-09-13T00:37:14;12.40;;;9.00;;
63193;SDS011;49289;51.670;5.624;2022-09-13T00:39:01;10.00;;;8.90;;
63193;SDS011;49289;51.670;5.624;2022-09-13T00:40:48;10.90;;;9.70;;
63193;SDS011;49289;51.670;5.624;2022-09-13T00:42:35;10.80;;;9.30;;
63193;SDS011;49289;51.670;5.624;2022-09-13T00:46:32;10.80;;;9.70;;
63193;SDS011;49289;51.670;5.624;2022-09-13T00:48:20;13.50;;;9.40;;
63193;SDS011;49289;51.670;5.624;2022-09-13T00:49:52;11.50;;;9.20;;
63193;SDS011;49289;51.670;5.624;2022-09-13T00:51:39;11.70;;;9.50;;
63193;SDS011;49289;51.670;5.624;2022-09-13T00:53:27;11.00;;;8.90;;
63193;SDS011;49289;51.670;5.624;2022-09-13T00:55:15;10.70;;;8.90;;
63193;SDS011;49289;51.670;5.624;2022-09-13T00:56:46;10.20;;;8.80;;
63193;SDS011;49289;51.670;5.624;2022-09-13T00:58:34;10.60;;;9.50;;
63193;SDS011;49289;51.670;5.624;2022-09-13T01:00:21;11.80;;;9.20;;
63193;SDS011;49289;51.670;5.624;2022-09-13T01:02:09;10.30;;;9.10;;
63193;SDS011;49289;51.670;5.624;2022-09-13T01:03:56;14.40;;;9.70;;
63193;SDS011;49289;51.670;5.624;2022-09-13T01:05:44;13.90;;;9.80;;
63193;SDS011;49289;51.670;5.624;2022-09-13T01:07:31;12.00;;;9.20;;
63193;SDS011;49289;51.670;5.624;2022-09-13T01:09:19;11.20;;;9.10;;
63193;SDS011;49289;51.670;5.624;2022-09-13T01:11:08;12.10;;;9.20;;
63193;SDS011;49289;51.670;5.624;2022-09-13T01:12:57;14.80;;;9.10;;
63193;SDS011;49289;51.670;5.624;2022-09-13T01:14:44;12.00;;;9.70;;
63193;SDS011;49289;51.670;5.624;2022-09-13T01:16:32;10.10;;;8.90;;
63193;SDS011;49289;51.670;5.624;2022-09-13T01:18:20;12.70;;;9.30;;
63193;SDS011;49289;51.670;5.624;2022-09-13T01:20:07;11.80;;;9.90;;
63193;SDS011;49289;51.670;5.624;2022-09-13T01:26:31;10.50;;;9.40;;
63193;SDS011;49289;51.670;5.624;2022-09-13T01:28:43;10.70;;;8.80;;
63193;SDS011;49289;51.670;5.624;2022-09-13T01:30:44;10.30;;;9.30;;
63193;SDS011;49289;51.670;5.624;2022-09-13T01:32:32;10.60;;;8.90;;
63193;SDS011;49289;51.670;5.624;2022-09-13T01:34:08;10.60;;;9.10;;
63193;SDS011;49289;51.670;5.624;2022-09-13T01:36:03;12.60;;;9.40;;
63193;SDS011;49289;51.670;5.624;2022-09-13T01:38:03;10.30;;;9.00;;
63193;SDS011;49289;51.670;5.624;2022-09-13T01:40:00;10.10;;;9.00;;
63193;SDS011;49289;51.670;5.624;2022-09-13T01:41:58;10.30;;;8.40;;
63193;SDS011;49289;51.670;5.624;2022-09-13T01:43:51;10.30;;;9.20;;
63193;SDS011;49289;51.670;5.624;2022-09-13T01:45:40;10.80;;;9.10;;
63193;SDS011;49289;51.670;5.624;2022-09-13T01:47:28;11.00;;;9.00;;
63193;SDS011;49289;51.670;5.624;2022-09-13T01:49:16;15.40;;;9.10;;
63193;SDS011;49289;51.670;5.624;2022-09-13T01:51:04;10.50;;;8.70;;
63193;SDS011;49289;51.670;5.624;2022-09-13T01:52:53;9.60;;;8.60;;
63193;SDS011;49289;51.670;5.624;2022-09-13T01:54:42;10.50;;;9.10;;
63193;SDS011;49289;51.670;5.624;2022-09-13T01:56:30;10.60;;;8.90;;
63193;SDS011;49289;51.670;5.624;2022-09-13T01:58:19;11.50;;;8.80;;
63193;SDS011;49289;51.670;5.624;2022-09-13T02:00:08;12.10;;;8.90;;
63193;SDS011;49289;51.670;5.624;2022-09-13T02:01:59;12.30;;;9.20;;
63193;SDS011;49289;51.670;5.624;2022-09-13T02:03:48;9.80;;;8.50;;
63193;SDS011;49289;51.670;5.624;2022-09-13T02:05:36;11.00;;;9.00;;
63193;SDS011;49289;51.670;5.624;2022-09-13T02:07:08;9.70;;;8.70;;
63193;SDS011;49289;51.670;5.624;2022-09-13T02:08:42;10.10;;;8.80;;
63193;SDS011;49289;51.670;5.624;2022-09-13T02:10:30;10.90;;;8.90;;
63193;SDS011;49289;51.670;5.624;2022-09-13T02:12:17;9.40;;;8.40;;
63193;SDS011;49289;51.670;5.624;2022-09-13T02:14:06;13.00;;;8.70;;
63193;SDS011;49289;51.670;5.624;2022-09-13T02:15:54;10.50;;;8.80;;
63193;SDS011;49289;51.670;5.624;2022-09-13T02:17:41;10.90;;;9.30;;
63193;SDS011;49289;51.670;5.624;2022-09-13T02:19:30;10.40;;;8.90;;
63193;SDS011;49289;51.670;5.624;2022-09-13T02:21:16;12.20;;;8.80;;
63193;SDS011;49289;51.670;5.624;2022-09-13T02:23:06;11.70;;;9.20;;
63193;SDS011;49289;51.670;5.624;2022-09-13T02:24:36;10.60;;;9.50;;
63193;SDS011;49289;51.670;5.624;2022-09-13T02:26:23;10.90;;;9.00;;
63193;SDS011;49289;51.670;5.624;2022-09-13T02:28:12;10.90;;;9.70;;
63193;SDS011;49289;51.670;5.624;2022-09-13T02:30:00;9.90;;;8.90;;
63193;SDS011;49289;51.670;5.624;2022-09-13T02:31:49;10.80;;;8.90;;
63193;SDS011;49289;51.670;5.624;2022-09-13T02:33:35;11.80;;;8.70;;
63193;SDS011;49289;51.670;5.624;2022-09-13T02:35:23;12.90;;;9.30;;
63193;SDS011;49289;51.670;5.624;2022-09-13T02:37:11;12.70;;;9.70;;
63193;SDS011;49289;51.670;5.624;2022-09-13T02:38:59;9.70;;;8.70;;
63193;SDS011;49289;51.670;5.624;2022-09-13T02:40:47;11.10;;;9.00;;
63193;SDS011;49289;51.670;5.624;2022-09-13T02:42:35;11.40;;;9.20;;
63193;SDS011;49289;51.670;5.624;2022-09-13T02:44:22;11.40;;;9.40;;
63193;SDS011;49289;51.670;5.624;2022-09-13T02:48:15;10.50;;;8.90;;
63193;SDS011;49289;51.670;5.624;2022-09-13T02:50:05;10.80;;;9.40;;
63193;SDS011;49289;51.670;5.624;2022-09-13T02:51:56;10.70;;;9.20;;
63193;SDS011;49289;51.670;5.624;2022-09-13T02:53:43;12.30;;;8.90;;
63193;SDS011;49289;51.670;5.624;2022-09-13T02:55:29;11.30;;;8.90;;
63193;SDS011;49289;51.670;5.624;2022-09-13T02:57:18;10.80;;;8.30;;
63193;SDS011;49289;51.670;5.624;2022-09-13T02:59:07;9.70;;;8.70;;
63193;SDS011;49289;51.670;5.624;2022-09-13T03:00:52;11.00;;;8.60;;
63193;SDS011;49289;51.670;5.624;2022-09-13T03:03:41;11.00;;;8.80;;
63193;SDS011;49289;51.670;5.624;2022-09-13T03:05:29;10.80;;;8.80;;
63193;SDS011;49289;51.670;5.624;2022-09-13T03:07:17;11.00;;;8.80;;
63193;SDS011;49289;51.670;5.624;2022-09-13T03:09:05;11.00;;;8.80;;
63193;SDS011;49289;51.670;5.624;2022-09-13T03:10:55;10.80;;;9.40;;
63193;SDS011;49289;51.670;5.624;2022-09-13T03:12:50;11.40;;;9.50;;
63193;SDS011;49289;51.670;5.624;2022-09-13T03:14:43;12.40;;;9.30;;
63193;SDS011;49289;51.670;5.624;2022-09-13T03:16:39;12.70;;;9.40;;
63193;SDS011;49289;51.670;5.624;2022-09-13T03:18:34;12.00;;;9.80;;
63193;SDS011;49289;51.670;5.624;2022-09-13T03:20:24;14.00;;;10.20;;
63193;SDS011;49289;51.670;5.624;2022-09-13T03:22:15;11.10;;;9.90;;
63193;SDS011;49289;51.670;5.624;2022-09-13T03:24:06;13.20;;;10.00;;
63193;SDS011;49289;51.670;5.624;2022-09-13T03:26:01;12.10;;;10.40;;
63193;SDS011;49289;51.670;5.624;2022-09-13T03:28:04;12.70;;;10.20;;
63193;SDS011;49289;51.670;5.624;2022-09-13T03:29:51;11.90;;;10.40;;
63193;SDS011;49289;51.670;5.624;2022-09-13T03:31:40;11.70;;;10.40;;
63193;SDS011;49289;51.670;5.624;2022-09-13T03:33:28;13.00;;;10.50;;
63193;SDS011;49289;51.670;5.624;2022-09-13T03:35:19;13.50;;;10.20;;
63193;SDS011;49289;51.670;5.624;2022-09-13T03:37:09;14.70;;;10.80;;
63193;SDS011;49289;51.670;5.624;2022-09-13T03:38:59;12.40;;;10.50;;
63193;SDS011;49289;51.670;5.624;2022-09-13T03:40:46;12.80;;;9.80;;
63193;SDS011;49289;51.670;5.624;2022-09-13T03:42:34;12.40;;;10.00;;
63193;SDS011;49289;51.670;5.624;2022-09-13T03:44:20;13.30;;;10.00;;
63193;SDS011;49289;51.670;5.624;2022-09-13T03:45:53;11.60;;;10.20;;
63193;SDS011;49289;51.670;5.624;2022-09-13T03:47:39;11.50;;;10.30;;
63193;SDS011;49289;51.670;5.624;2022-09-13T03:49:26;12.00;;;10.30;;
63193;SDS011;49289;51.670;5.624;2022-09-13T03:51:14;14.60;;;10.70;;
63193;SDS011;49289;51.670;5.624;2022-09-13T03:53:03;12.40;;;10.50;;
63193;SDS011;49289;51.670;5.624;2022-09-13T03:54:51;15.40;;;10.10;;
63193;SDS011;49289;51.670;5.624;2022-09-13T03:56:39;11.80;;;9.90;;
63193;SDS011;49289;51.670;5.624;2022-09-13T03:58:28;11.30;;;9.50;;
63193;SDS011;49289;51.670;5.624;2022-09-13T04:00:17;12.00;;;10.00;;
63193;SDS011;49289;51.670;5.624;2022-09-13T04:02:05;11.10;;;9.80;;
63193;SDS011;49289;51.670;5.624;2022-09-13T04:03:51;11.80;;;10.00;;
63193;SDS011;49289;51.670;5.624;2022-09-13T04:05:39;11.70;;;9.90;;
63193;SDS011;49289;51.670;5.624;2022-09-13T04:07:27;12.40;;;9.40;;
63193;SDS011;49289;51.670;5.624;2022-09-13T04:09:15;14.80;;;9.90;;
63193;SDS011;49289;51.670;5.624;2022-09-13T04:11:03;11.50;;;9.90;;
63193;SDS011;49289;51.670;5.624;2022-09-13T04:12:52;11.70;;;9.60;;
63193;SDS011;49289;51.670;5.624;2022-09-13T04:14:40;10.90;;;9.80;;
63193;SDS011;49289;51.670;5.624;2022-09-13T04:16:28;14.00;;;9.50;;
63193;SDS011;49289;51.670;5.624;2022-09-13T04:18:16;11.80;;;9.60;;
63193;SDS011;49289;51.670;5.624;2022-09-13T04:20:04;12.10;;;9.70;;
63193;SDS011;49289;51.670;5.624;2022-09-13T04:21:52;12.60;;;10.10;;
63193;SDS011;49289;51.670;5.624;2022-09-13T04:23:40;12.30;;;9.70;;
63193;SDS011;49289;51.670;5.624;2022-09-13T04:25:28;10.70;;;9.60;;
63193;SDS011;49289;51.670;5.624;2022-09-13T04:27:16;12.80;;;10.10;;
63193;SDS011;49289;51.670;5.624;2022-09-13T04:29:03;11.50;;;10.10;;
63193;SDS011;49289;51.670;5.624;2022-09-13T04:30:50;12.10;;;9.80;;
63193;SDS011;49289;51.670;5.624;2022-09-13T04:32:37;11.20;;;9.90;;
63193;SDS011;49289;51.670;5.624;2022-09-13T04:34:09;11.70;;;9.90;;
63193;SDS011;49289;51.670;5.624;2022-09-13T04:35:59;10.70;;;9.60;;
63193;SDS011;49289;51.670;5.624;2022-09-13T04:37:46;11.80;;;9.80;;
63193;SDS011;49289;51.670;5.624;2022-09-13T04:39:33;10.90;;;9.50;;
63193;SDS011;49289;51.670;5.624;2022-09-13T04:41:20;12.30;;;9.90;;
63193;SDS011;49289;51.670;5.624;2022-09-13T04:43:07;11.70;;;10.00;;
63193;SDS011;49289;51.670;5.624;2022-09-13T04:44:54;13.10;;;10.40;;
63193;SDS011;49289;51.670;5.624;2022-09-13T04:46:41;13.00;;;10.60;;
63193;SDS011;49289;51.670;5.624;2022-09-13T04:48:28;12.60;;;10.70;;
63193;SDS011;49289;51.670;5.624;2022-09-13T04:50:15;12.40;;;9.90;;
63193;SDS011;49289;51.670;5.624;2022-09-13T04:52:02;11.40;;;10.10;;
63193;SDS011;49289;51.670;5.624;2022-09-13T04:53:51;15.10;;;9.90;;
63193;SDS011;49289;51.670;5.624;2022-09-13T04:55:37;11.40;;;9.70;;
63193;SDS011;49289;51.670;5.624;2022-09-13T04:57:24;11.40;;;9.90;;
63193;SDS011;49289;51.670;5.624;2022-09-13T04:59:12;10.80;;;9.50;;
63193;SDS011;49289;51.670;5.624;2022-09-13T05:01:05;12.70;;;10.40;;
63193;SDS011;49289;51.670;5.624;2022-09-13T05:02:53;12.00;;;10.20;;
63193;SDS011;49289;51.670;5.624;2022-09-13T05:04:41;10.70;;;9.60;;
63193;SDS011;49289;51.670;5.624;2022-09-13T05:06:29;13.10;;;10.50;;
63193;SDS011;49289;51.670;5.624;2022-09-13T05:08:17;12.90;;;10.80;;
63193;SDS011;49289;51.670;5.624;2022-09-13T05:09:50;14.50;;;10.60;;
63193;SDS011;49289;51.670;5.624;2022-09-13T05:11:37;12.60;;;10.30;;
63193;SDS011;49289;51.670;5.624;2022-09-13T05:13:24;13.90;;;11.00;;
63193;SDS011;49289;51.670;5.624;2022-09-13T05:15:12;13.50;;;10.90;;
63193;SDS011;49289;51.670;5.624;2022-09-13T05:16:59;14.70;;;11.10;;
63193;SDS011;49289;51.670;5.624;2022-09-13T05:18:46;14.00;;;11.00;;
63193;SDS011;49289;51.670;5.624;2022-09-13T05:20:33;14.20;;;10.80;;
63193;SDS011;49289;51.670;5.624;2022-09-13T05:22:20;15.10;;;11.30;;
63193;SDS011;49289;51.670;5.624;2022-09-13T05:24:07;12.00;;;10.40;;
63193;SDS011;49289;51.670;5.624;2022-09-13T05:25:57;12.20;;;10.40;;
63193;SDS011;49289;51.670;5.624;2022-09-13T05:27:44;13.60;;;10.80;;
63193;SDS011;49289;51.670;5.624;2022-09-13T05:29:31;12.20;;;10.70;;
63193;SDS011;49289;51.670;5.624;2022-09-13T05:31:19;13.60;;;10.70;;
63193;SDS011;49289;51.670;5.624;2022-09-13T05:33:05;11.80;;;10.60;;
63193;SDS011;49289;51.670;5.624;2022-09-13T05:34:52;12.60;;;11.00;;
63193;SDS011;49289;51.670;5.624;2022-09-13T05:36:39;14.10;;;10.50;;
63193;SDS011;49289;51.670;5.624;2022-09-13T05:38:26;12.10;;;10.20;;
63193;SDS011;49289;51.670;5.624;2022-09-13T05:40:14;12.50;;;10.50;;
63193;SDS011;49289;51.670;5.624;2022-09-13T05:42:01;11.70;;;10.20;;
63193;SDS011;49289;51.670;5.624;2022-09-13T05:43:49;12.10;;;10.50;;
63193;SDS011;49289;51.670;5.624;2022-09-13T05:45:37;13.20;;;10.90;;
63193;SDS011;49289;51.670;5.624;2022-09-13T05:47:25;14.10;;;11.10;;
63193;SDS011;49289;51.670;5.624;2022-09-13T05:49:14;12.90;;;11.10;;
63193;SDS011;49289;51.670;5.624;2022-09-13T05:51:08;13.90;;;11.10;;
63193;SDS011;49289;51.670;5.624;2022-09-13T05:52:56;13.40;;;11.50;;
63193;SDS011;49289;51.670;5.624;2022-09-13T05:54:43;12.50;;;11.20;;
63193;SDS011;49289;51.670;5.624;2022-09-13T05:56:30;13.60;;;11.30;;
63193;SDS011;49289;51.670;5.624;2022-09-13T05:58:17;15.10;;;11.40;;
63193;SDS011;49289;51.670;5.624;2022-09-13T06:00:04;12.80;;;11.30;;
63193;SDS011;49289;51.670;5.624;2022-09-13T06:01:37;13.10;;;11.60;;
63193;SDS011;49289;51.670;5.624;2022-09-13T06:03:24;19.70;;;12.00;;
63193;SDS011;49289;51.670;5.624;2022-09-13T06:05:12;13.40;;;11.70;;
63193;SDS011;49289;51.670;5.624;2022-09-13T06:07:00;14.40;;;11.40;;
63193;SDS011;49289;51.670;5.624;2022-09-13T06:08:50;15.30;;;11.50;;
63193;SDS011;49289;51.670;5.624;2022-09-13T06:10:36;17.80;;;11.50;;
63193;SDS011;49289;51.670;5.624;2022-09-13T06:12:23;14.10;;;11.50;;
63193;SDS011;49289;51.670;5.624;2022-09-13T06:14:10;14.50;;;11.40;;
63193;SDS011;49289;51.670;5.624;2022-09-13T06:15:58;15.10;;;11.30;;
63193;SDS011;49289;51.670;5.624;2022-09-13T06:17:44;14.80;;;12.00;;
63193;SDS011;49289;51.670;5.624;2022-09-13T06:19:31;14.90;;;11.60;;
63193;SDS011;49289;51.670;5.624;2022-09-13T06:21:19;17.80;;;11.80;;
63193;SDS011;49289;51.670;5.624;2022-09-13T06:23:05;15.90;;;11.80;;
63193;SDS011;49289;51.670;5.624;2022-09-13T06:24:52;15.50;;;12.20;;
63193;SDS011;49289;51.670;5.624;2022-09-13T06:26:39;15.90;;;11.80;;
63193;SDS011;49289;51.670;5.624;2022-09-13T06:28:26;14.40;;;12.00;;
63193;SDS011;49289;51.670;5.624;2022-09-13T06:30:14;15.40;;;11.90;;
63193;SDS011;49289;51.670;5.624;2022-09-13T06:32:02;15.90;;;11.40;;
63193;SDS011;49289;51.670;5.624;2022-09-13T06:33:53;16.10;;;11.10;;
63193;SDS011;49289;51.670;5.624;2022-09-13T06:35:39;14.50;;;12.60;;
63193;SDS011;49289;51.670;5.624;2022-09-13T06:37:26;15.10;;;11.40;;
63193;SDS011;49289;51.670;5.624;2022-09-13T06:39:13;14.40;;;11.60;;
63193;SDS011;49289;51.670;5.624;2022-09-13T06:41:07;13.90;;;11.40;;
63193;SDS011;49289;51.670;5.624;2022-09-13T06:42:53;18.30;;;12.20;;
63193;SDS011;49289;51.670;5.624;2022-09-13T06:44:40;15.70;;;11.90;;
63193;SDS011;49289;51.670;5.624;2022-09-13T06:46:27;15.80;;;12.20;;
63193;SDS011;49289;51.670;5.624;2022-09-13T06:48:14;17.00;;;13.00;;
63193;SDS011;49289;51.670;5.624;2022-09-13T06:50:01;15.70;;;12.40;;
63193;SDS011;49289;51.670;5.624;2022-09-13T06:51:49;15.00;;;12.80;;
63193;SDS011;49289;51.670;5.624;2022-09-13T06:53:37;15.90;;;13.00;;
63193;SDS011;49289;51.670;5.624;2022-09-13T06:55:25;18.60;;;13.50;;
63193;SDS011;49289;51.670;5.624;2022-09-13T06:57:13;14.60;;;12.70;;
63193;SDS011;49289;51.670;5.624;2022-09-13T06:59:03;21.10;;;13.20;;
63193;SDS011;49289;51.670;5.624;2022-09-13T07:00:49;18.60;;;14.00;;
63193;SDS011;49289;51.670;5.624;2022-09-13T07:02:38;17.10;;;13.70;;
63193;SDS011;49289;51.670;5.624;2022-09-13T07:04:26;21.70;;;13.80;;
63193;SDS011;49289;51.670;5.624;2022-09-13T07:06:15;21.10;;;14.50;;
63193;SDS011;49289;51.670;5.624;2022-09-13T07:08:01;18.30;;;14.50;;
63193;SDS011;49289;51.670;5.624;2022-09-13T07:09:48;20.10;;;14.20;;
63193;SDS011;49289;51.670;5.624;2022-09-13T07:11:36;17.10;;;14.70;;
63193;SDS011;49289;51.670;5.624;2022-09-13T07:13:22;18.50;;;15.20;;
63193;SDS011;49289;51.670;5.624;2022-09-13T07:15:10;18.90;;;15.10;;
63193;SDS011;49289;51.670;5.624;2022-09-13T07:16:58;22.00;;;15.60;;
63193;SDS011;49289;51.670;5.624;2022-09-13T07:18:45;17.60;;;15.20;;
63193;SDS011;49289;51.670;5.624;2022-09-13T07:20:20;19.40;;;15.80;;
63193;SDS011;49289;51.670;5.624;2022-09-13T07:23:06;21.80;;;16.60;;
63193;SDS011;49289;51.670;5.624;2022-09-13T07:24:38;22.70;;;16.40;;
63193;SDS011;49289;51.670;5.624;2022-09-13T07:26:28;22.50;;;17.10;;
63193;SDS011;49289;51.670;5.624;2022-09-13T07:28:17;21.10;;;16.70;;
63193;SDS011;49289;51.670;5.624;2022-09-13T07:29:50;24.10;;;17.70;;
63193;SDS011;49289;51.670;5.624;2022-09-13T07:31:23;20.30;;;16.80;;
63193;SDS011;49289;51.670;5.624;2022-09-13T07:33:11;22.50;;;17.20;;
63193;SDS011;49289;51.670;5.624;2022-09-13T07:34:59;21.10;;;17.60;;
63193;SDS011;49289;51.670;5.624;2022-09-13T07:36:46;25.70;;;19.60;;
63193;SDS011;49289;51.670;5.624;2022-09-13T07:38:33;26.40;;;19.70;;
63193;SDS011;49289;51.670;5.624;2022-09-13T07:40:05;27.30;;;19.40;;
63193;SDS011;49289;51.670;5.624;2022-09-13T07:41:53;24.20;;;18.60;;
63193;SDS011;49289;51.670;5.624;2022-09-13T07:43:40;30.10;;;20.10;;
63193;SDS011;49289;51.670;5.624;2022-09-13T07:45:27;25.30;;;18.70;;
63193;SDS011;49289;51.670;5.624;2022-09-13T07:47:14;27.90;;;20.00;;
63193;SDS011;49289;51.670;5.624;2022-09-13T07:48:46;28.40;;;20.20;;
63193;SDS011;49289;51.670;5.624;2022-09-13T07:50:34;32.10;;;19.90;;
63193;SDS011;49289;51.670;5.624;2022-09-13T07:52:23;30.00;;;21.00;;
63193;SDS011;49289;51.670;5.624;2022-09-13T07:54:15;26.30;;;20.70;;
63193;SDS011;49289;51.670;5.624;2022-09-13T07:56:05;33.10;;;21.70;;
63193;SDS011;49289;51.670;5.624;2022-09-13T07:57:52;27.00;;;21.20;;
63193;SDS011;49289;51.670;5.624;2022-09-13T07:59:42;27.00;;;21.20;;
63193;SDS011;49289;51.670;5.624;2022-09-13T08:01:15;27.30;;;21.20;;
63193;SDS011;49289;51.670;5.624;2022-09-13T08:02:48;29.60;;;21.30;;
63193;SDS011;49289;51.670;5.624;2022-09-13T08:04:36;30.00;;;21.80;;
63193;SDS011;49289;51.670;5.624;2022-09-13T08:06:23;28.20;;;21.80;;
63193;SDS011;49289;51.670;5.624;2022-09-13T08:08:10;27.90;;;20.80;;
63193;SDS011;49289;51.670;5.624;2022-09-13T08:09:57;26.00;;;20.50;;
63193;SDS011;49289;51.670;5.624;2022-09-13T08:11:45;28.10;;;20.70;;
63193;SDS011;49289;51.670;5.624;2022-09-13T08:13:32;28.10;;;21.30;;
63193;SDS011;49289;51.670;5.624;2022-09-13T08:15:21;25.20;;;20.10;;
63193;SDS011;49289;51.670;5.624;2022-09-13T08:17:10;25.60;;;20.40;;
63193;SDS011;49289;51.670;5.624;2022-09-13T08:18:59;26.90;;;20.10;;
63193;SDS011;49289;51.670;5.624;2022-09-13T08:20:46;29.70;;;20.00;;
63193;SDS011;49289;51.670;5.624;2022-09-13T08:22:34;25.50;;;20.00;;
63193;SDS011;49289;51.670;5.624;2022-09-13T08:24:22;25.50;;;18.70;;
63193;SDS011;49289;51.670;5.624;2022-09-13T08:26:10;22.70;;;18.70;;
63193;SDS011;49289;51.670;5.624;2022-09-13T08:27:58;26.80;;;20.20;;
63193;SDS011;49289;51.670;5.624;2022-09-13T08:29:47;25.80;;;19.60;;
63193;SDS011;49289;51.670;5.624;2022-09-13T08:31:35;27.10;;;20.20;;
63193;SDS011;49289;51.670;5.624;2022-09-13T08:33:22;26.40;;;20.30;;
63193;SDS011;49289;51.670;5.624;2022-09-13T08:35:09;26.40;;;18.90;;
63193;SDS011;49289;51.670;5.624;2022-09-13T08:36:57;25.60;;;19.90;;
63193;SDS011;49289;51.670;5.624;2022-09-13T08:38:50;26.00;;;20.00;;
63193;SDS011;49289;51.670;5.624;2022-09-13T08:40:37;21.10;;;16.00;;
63193;SDS011;49289;51.670;5.624;2022-09-13T08:42:25;19.10;;;15.40;;
63193;SDS011;49289;51.670;5.624;2022-09-13T08:44:17;18.90;;;14.90;;
63193;SDS011;49289;51.670;5.624;2022-09-13T08:46:04;19.80;;;14.90;;
63193;SDS011;49289;51.670;5.624;2022-09-13T08:47:52;20.30;;;16.00;;
63193;SDS011;49289;51.670;5.624;2022-09-13T08:49:39;21.10;;;16.50;;
63193;SDS011;49289;51.670;5.624;2022-09-13T08:51:33;20.60;;;15.30;;
63193;SDS011;49289;51.670;5.624;2022-09-13T08:53:18;19.40;;;14.00;;
63193;SDS011;49289;51.670;5.624;2022-09-13T08:55:07;23.30;;;14.60;;
63193;SDS011;49289;51.670;5.624;2022-09-13T08:56:54;18.80;;;15.30;;
63193;SDS011;49289;51.670;5.624;2022-09-13T08:58:45;19.70;;;15.90;;
63193;SDS011;49289;51.670;5.624;2022-09-13T09:00:40;18.60;;;14.80;;
63193;SDS011;49289;51.670;5.624;2022-09-13T09:02:29;19.80;;;14.10;;
63193;SDS011;49289;51.670;5.624;2022-09-13T09:04:19;18.20;;;14.30;;
63193;SDS011;49289;51.670;5.624;2022-09-13T09:06:08;17.00;;;13.30;;
63193;SDS011;49289;51.670;5.624;2022-09-13T09:07:57;16.70;;;12.90;;
63193;SDS011;49289;51.670;5.624;2022-09-13T09:09:30;16.30;;;13.20;;
63193;SDS011;49289;51.670;5.624;2022-09-13T09:11:19;17.60;;;13.60;;
63193;SDS011;49289;51.670;5.624;2022-09-13T09:13:11;18.90;;;13.60;;
63193;SDS011;49289;51.670;5.624;2022-09-13T09:14:59;19.30;;;13.70;;
63193;SDS011;49289;51.670;5.624;2022-09-13T09:16:47;15.80;;;12.30;;
63193;SDS011;49289;51.670;5.624;2022-09-13T09:18:34;14.10;;;11.70;;
63193;SDS011;49289;51.670;5.624;2022-09-13T09:20:26;14.40;;;11.40;;
63193;SDS011;49289;51.670;5.624;2022-09-13T09:22:15;13.40;;;10.70;;
63193;SDS011;49289;51.670;5.624;2022-09-13T09:24:01;16.40;;;11.50;;
63193;SDS011;49289;51.670;5.624;2022-09-13T09:25:49;14.90;;;10.90;;
63193;SDS011;49289;51.670;5.624;2022-09-13T09:27:36;13.70;;;10.60;;
63193;SDS011;49289;51.670;5.624;2022-09-13T09:29:13;13.20;;;9.60;;
63193;SDS011;49289;51.670;5.624;2022-09-13T09:31:02;11.80;;;9.30;;
63193;SDS011;49289;51.670;5.624;2022-09-13T09:32:56;13.10;;;9.50;;
63193;SDS011;49289;51.670;5.624;2022-09-13T09:34:47;11.60;;;8.80;;
63193;SDS011;49289;51.670;5.624;2022-09-13T09:36:38;8.90;;;7.20;;
63193;SDS011;49289;51.670;5.624;2022-09-13T09:38:30;10.70;;;7.70;;
63193;SDS011;49289;51.670;5.624;2022-09-13T09:40:20;11.90;;;8.90;;
63193;SDS011;49289;51.670;5.624;2022-09-13T09:42:07;11.90;;;9.60;;
63193;SDS011;49289;51.670;5.624;2022-09-13T09:43:58;10.30;;;8.50;;
63193;SDS011;49289;51.670;5.624;2022-09-13T09:45:46;11.50;;;8.60;;
63193;SDS011;49289;51.670;5.624;2022-09-13T09:47:36;10.90;;;8.20;;
63193;SDS011;49289;51.670;5.624;2022-09-13T09:49:25;12.60;;;7.80;;
63193;SDS011;49289;51.670;5.624;2022-09-13T09:51:10;10.60;;;8.00;;
63193;SDS011;49289;51.670;5.624;2022-09-13T09:52:58;10.10;;;7.50;;
63193;SDS011;49289;51.670;5.624;2022-09-13T09:54:44;11.10;;;8.90;;
63193;SDS011;49289;51.670;5.624;2022-09-13T09:56:31;11.90;;;8.80;;
63193;SDS011;49289;51.670;5.624;2022-09-13T09:58:18;11.20;;;8.40;;
63193;SDS011;49289;51.670;5.624;2022-09-13T10:00:14;12.50;;;8.80;;
63193;SDS011;49289;51.670;5.624;2022-09-13T10:02:16;12.70;;;8.10;;
63193;SDS011;49289;51.670;5.624;2022-09-13T10:04:00;14.30;;;8.20;;
63193;SDS011;49289;51.670;5.624;2022-09-13T10:05:47;11.40;;;7.60;;
63193;SDS011;49289;51.670;5.624;2022-09-13T10:07:34;6.90;;;6.10;;
63193;SDS011;49289;51.670;5.624;2022-09-13T10:09:22;8.00;;;5.80;;
63193;SDS011;49289;51.670;5.624;2022-09-13T10:11:10;7.60;;;5.80;;
63193;SDS011;49289;51.670;5.624;2022-09-13T10:12:58;6.50;;;5.30;;
63193;SDS011;49289;51.670;5.624;2022-09-13T10:14:47;5.80;;;5.20;;
63193;SDS011;49289;51.670;5.624;2022-09-13T10:16:35;7.20;;;5.80;;
63193;SDS011;49289;51.670;5.624;2022-09-13T10:18:23;7.40;;;5.80;;
63193;SDS011;49289;51.670;5.624;2022-09-13T10:20:22;8.50;;;6.50;;
63193;SDS011;49289;51.670;5.624;2022-09-13T10:22:09;8.70;;;6.80;;
63193;SDS011;49289;51.670;5.624;2022-09-13T10:24:14;7.50;;;6.40;;
63193;SDS011;49289;51.670;5.624;2022-09-13T10:25:53;7.10;;;5.70;;
63193;SDS011;49289;51.670;5.624;2022-09-13T10:27:42;8.10;;;6.60;;
63193;SDS011;49289;51.670;5.624;2022-09-13T10:29:31;9.00;;;6.80;;
63193;SDS011;49289;51.670;5.624;2022-09-13T10:31:18;9.20;;;6.00;;
63193;SDS011;49289;51.670;5.624;2022-09-13T10:33:05;8.50;;;6.10;;
63193;SDS011;49289;51.670;5.624;2022-09-13T10:34:54;7.50;;;5.60;;
63193;SDS011;49289;51.670;5.624;2022-09-13T10:36:44;6.70;;;5.50;;
63193;SDS011;49289;51.670;5.624;2022-09-13T10:38:32;6.40;;;5.50;;
63193;SDS011;49289;51.670;5.624;2022-09-13T10:40:23;7.10;;;5.30;;
63193;SDS011;49289;51.670;5.624;2022-09-13T10:42:10;8.30;;;5.70;;
63193;SDS011;49289;51.670;5.624;2022-09-13T10:44:01;7.20;;;5.20;;